Time;durP1;ratioP1;P1;durP2;ratioP2;P2;SDS_P1;SDS_P2;PMS_P1;PMS_P2;Temp;Humidity;BMP_temperature;BMP_pressure;BME280_temperature;BME280_humidity;BME280_pressure;Samples;Min_cycle;Max_cycle;Signal;HPM_P1;HPM_P2
2022/04/24 00:01:34;;;;;;;0.00;0.00;;;;;;;15.59;60.66;98414.72;4859180;29;20029;-74
2022/04/24 00:04:00;;;;;;;0.00;0.00;;;;;;;15.57;60.93;98419.63;4858884;29;20033;-74
2022/04/24 00:06:26;;;;;;;0.00;0.00;;;;;;;15.53;61.15;98425.66;4858815;29;20060;-74
2022/04/24 00:08:51;;;;;;;0.00;0.00;;;;;;;15.48;61.36;98412.38;4858602;29;20026;-74
2022/04/24 00:11:17;;;;;;;0.00;0.00;;;;;;;15.46;61.44;98420.00;4858799;29;20383;-74
2022/04/24 00:13:43;;;;;;;0.00;0.00;;;;;;;15.41;61.70;98417.47;4858532;29;20558;-74
2022/04/24 00:16:09;;;;;;;0.00;0.00;;;;;;;15.34;61.95;98415.31;4858527;29;20086;-74
2022/04/24 00:18:35;;;;;;;0.00;0.00;;;;;;;15.34;62.36;98422.56;4858776;29;20041;-74
2022/04/24 00:21:01;;;;;;;0.00;0.00;;;;;;;15.34;62.78;98426.06;4858692;29;20033;-74
2022/04/24 00:23:28;;;;;;;0.00;0.00;;;;;;;15.26;62.61;98428.78;4858715;29;20036;-74
2022/04/24 00:25:53;;;;;;;0.00;0.00;;;;;;;15.25;62.72;98429.91;4858440;29;20505;-74
2022/04/24 00:28:19;;;;;;;0.10;0.10;;;;;;;15.20;62.89;98423.56;4859947;29;20025;-74
2022/04/24 00:30:44;;;;;;;0.08;0.08;;;;;;;15.20;63.04;98425.50;4862346;29;20034;-74
2022/04/24 00:33:09;;;;;;;0.00;0.00;;;;;;;15.19;63.46;98429.28;4862113;29;20054;-74
2022/04/24 00:35:35;;;;;;;0.10;0.10;;;;;;;15.19;63.85;98421.22;4862284;29;20037;-74
2022/04/24 00:38:00;;;;;;;0.00;0.00;;;;;;;15.23;64.08;98429.44;4862098;29;20036;-74
2022/04/24 00:40:26;;;;;;;0.10;0.10;;;;;;;15.22;63.61;98428.63;4862454;29;20032;-74
2022/04/24 00:42:51;;;;;;;0.00;0.00;;;;;;;15.26;63.95;98431.47;4862165;29;20034;-74
2022/04/24 00:45:16;;;;;;;0.00;0.00;;;;;;;15.24;63.81;98428.31;4861873;29;20040;-74
2022/04/24 00:47:44;;;;;;;0.00;0.00;;;;;;;15.25;63.92;98429.91;4862306;29;20033;-74
2022/04/24 00:50:09;;;;;;;0.00;0.00;;;;;;;15.21;64.06;98433.25;4861880;29;20034;-74
2022/04/24 00:52:37;;;;;;;0.10;0.10;;;;;;;15.20;63.77;98439.72;4861645;29;20053;-74
2022/04/24 00:55:03;;;;;;;0.00;0.00;;;;;;;15.16;63.98;98432.59;4861515;29;20120;-74
2022/04/24 00:57:29;;;;;;;0.00;0.00;;;;;;;15.15;64.18;98434.53;4861894;29;20664;-74
2022/04/24 00:59:55;;;;;;;0.00;0.00;;;;;;;15.13;64.28;98435.97;4861674;29;20116;-74
2022/04/24 01:02:20;;;;;;;0.00;0.00;;;;;;;15.12;64.20;98426.28;4861873;29;20033;-74
2022/04/24 01:04:46;;;;;;;0.00;0.00;;;;;;;15.11;64.52;98438.97;4861519;29;20025;-74
2022/04/24 01:07:11;;;;;;;0.00;0.00;;;;;;;15.08;64.23;98446.91;4861457;29;20025;-74
2022/04/24 01:09:37;;;;;;;0.00;0.00;;;;;;;15.12;64.21;98448.63;4861743;29;20033;-74
2022/04/24 01:12:04;;;;;;;0.00;0.00;;;;;;;15.11;63.98;98452.44;4861432;29;20082;-74
2022/04/24 01:14:30;;;;;;;0.00;0.00;;;;;;;15.07;63.66;98450.72;4861656;29;20052;-74
2022/04/24 01:16:57;;;;;;;0.00;0.00;;;;;;;15.05;63.42;98451.03;4861361;29;20124;-74
2022/04/24 01:19:24;;;;;;;0.00;0.00;;;;;;;14.99;63.40;98446.91;4861286;29;20094;-74
2022/04/24 01:21:50;;;;;;;0.00;0.00;;;;;;;15.01;63.27;98450.88;4861442;29;20043;-74
2022/04/24 01:24:18;;;;;;;0.00;0.00;;;;;;;15.00;63.37;98453.88;4861212;29;20116;-74
2022/04/24 01:26:43;;;;;;;0.10;0.10;;;;;;;14.99;63.12;98445.03;4861327;29;20065;-74
2022/04/24 01:29:12;;;;;;;0.00;0.00;;;;;;;14.93;62.92;98448.19;4861154;29;20113;-74
2022/04/24 01:31:38;;;;;;;;;;;;;;;14.97;62.82;98449.16;4861683;29;20021;-74
2022/04/24 01:34:04;;;;;;;0.10;0.10;;;;;;;14.92;62.97;98450.09;4861064;29;19919;-74
2022/04/24 01:36:29;;;;;;;0.00;0.00;;;;;;;14.87;63.06;98455.66;4861223;29;20417;-74
2022/04/24 01:38:55;;;;;;;0.00;0.00;;;;;;;14.81;63.07;98455.03;4861062;29;20054;-74
2022/04/24 01:41:20;;;;;;;0.10;0.10;;;;;;;14.78;63.24;98442.22;4860905;29;20458;-74
2022/04/24 01:43:47;;;;;;;0.00;0.00;;;;;;;14.74;63.53;98443.94;4861392;29;20034;-74
2022/04/24 01:46:13;;;;;;;0.00;0.00;;;;;;;14.74;63.44;98454.72;4860494;29;20448;-74
2022/04/24 01:48:39;;;;;;;0.00;0.00;;;;;;;14.68;63.57;98448.72;4861006;29;20029;-73
2022/04/24 01:51:06;;;;;;;0.00;0.00;;;;;;;14.63;63.74;98446.13;4860649;29;20478;-73
2022/04/24 01:53:32;;;;;;;0.10;0.10;;;;;;;14.61;63.76;98453.75;4860999;29;20040;-73
2022/04/24 01:56:00;;;;;;;0.00;0.00;;;;;;;14.60;63.81;98451.34;4860662;29;20056;-73
2022/04/24 01:58:26;;;;;;;0.00;0.00;;;;;;;14.55;63.96;98452.31;4860570;29;20425;-74
2022/04/24 02:00:52;;;;;;;0.00;0.00;;;;;;;14.53;64.16;98465.28;4860787;29;20037;-73
2022/04/24 02:03:19;;;;;;;0.00;0.00;;;;;;;14.52;64.46;98456.41;4860585;29;20038;-74
2022/04/24 02:05:44;;;;;;;0.00;0.00;;;;;;;14.49;64.58;98464.31;4860422;29;20124;-73
2022/04/24 02:08:10;;;;;;;0.10;0.10;;;;;;;14.45;64.67;98461.47;4860159;29;20108;-73
2022/04/24 02:10:35;;;;;;;0.10;0.10;;;;;;;14.44;64.58;98462.59;4860632;29;20040;-73
2022/04/24 02:13:00;;;;;;;0.00;0.00;;;;;;;14.40;64.68;98458.94;4860395;29;20026;-73
2022/04/24 02:15:26;;;;;;;0.00;0.00;;;;;;;14.43;64.53;98465.59;4860561;29;20026;-73
2022/04/24 02:17:52;;;;;;;0.10;0.10;;;;;;;14.41;64.50;98461.34;4859229;29;20041;-73
2022/04/24 02:20:18;;;;;;;0.00;0.00;;;;;;;14.39;64.49;98465.44;4860197;29;20351;-73
2022/04/24 02:22:43;;;;;;;0.00;0.00;;;;;;;14.37;64.66;98460.38;4860422;29;20029;-73
2022/04/24 02:25:08;;;;;;;0.00;0.00;;;;;;;14.31;64.75;98461.63;4860207;29;20094;-73
2022/04/24 02:27:34;;;;;;;0.00;0.00;;;;;;;14.33;64.53;98466.69;4860332;29;20517;-73
2022/04/24 02:30:00;;;;;;;0.00;0.00;;;;;;;14.31;64.47;98464.31;4860059;29;20116;-73
2022/04/24 02:32:25;;;;;;;0.03;0.03;;;;;;;14.30;64.62;98470.03;4860272;29;20033;-73
2022/04/24 02:34:51;;;;;;;0.05;0.05;;;;;;;14.27;64.67;98474.13;4858969;29;20038;-74
2022/04/24 02:37:17;;;;;;;0.00;0.00;;;;;;;14.27;64.77;98470.63;4860049;29;20045;-73
2022/04/24 02:39:43;;;;;;;0.00;0.00;;;;;;;14.20;64.88;98471.91;4860147;29;20040;-73
2022/04/24 02:42:08;;;;;;;0.00;0.00;;;;;;;14.22;64.78;98483.16;4859616;29;20463;-73
2022/04/24 02:44:34;;;;;;;0.10;0.10;;;;;;;14.19;64.99;98483.75;4860286;29;20040;-73
2022/04/24 02:47:00;;;;;;;0.00;0.00;;;;;;;14.17;65.25;98483.31;4859899;29;20036;-73
2022/04/24 02:49:25;;;;;;;0.00;0.00;;;;;;;14.12;65.42;98475.34;4859948;29;20071;-74
2022/04/24 02:51:51;;;;;;;0.00;0.00;;;;;;;14.09;65.36;98476.00;4859358;29;20053;-73
2022/04/24 02:54:16;;;;;;;0.00;0.00;;;;;;;14.08;65.36;98475.19;4859688;29;20058;-73
2022/04/24 02:56:41;;;;;;;0.00;0.00;;;;;;;14.04;65.76;98486.91;4859833;29;20407;-73
2022/04/24 02:59:07;;;;;;;0.10;0.10;;;;;;;14.06;65.66;98496.25;4859828;29;20121;-73
2022/04/24 03:01:34;;;;;;;0.00;0.00;;;;;;;14.02;65.87;98495.25;4859446;29;20041;-73
2022/04/24 03:03:59;;;;;;;0.10;0.10;;;;;;;14.01;65.76;98495.59;4859675;29;20029;-73
2022/04/24 03:06:25;;;;;;;0.00;0.00;;;;;;;13.96;66.07;98501.88;4859579;29;20082;-73
2022/04/24 03:08:50;;;;;;;0.00;0.00;;;;;;;13.89;66.30;98499.66;4843010;29;20029;-73
2022/04/24 03:11:16;;;;;;;0.00;0.00;;;;;;;13.87;66.20;98507.25;4858173;29;20078;-73
2022/04/24 03:13:42;;;;;;;0.00;0.00;;;;;;;13.86;66.25;98507.56;4859542;29;20034;-73
2022/04/24 03:16:08;;;;;;;0.10;0.10;;;;;;;13.82;66.18;98512.75;4859557;29;20092;-74
2022/04/24 03:18:33;;;;;;;0.00;0.00;;;;;;;13.76;66.34;98505.94;4859433;29;20029;-74
2022/04/24 03:20:59;;;;;;;0.00;0.00;;;;;;;13.75;66.00;98517.78;4859381;29;20394;-73
2022/04/24 03:23:24;;;;;;;0.00;0.00;;;;;;;13.65;66.22;98516.16;4859449;29;20104;-74
2022/04/24 03:25:50;;;;;;;0.00;0.00;;;;;;;13.59;66.70;98517.41;4859255;29;20029;-73
2022/04/24 03:28:16;;;;;;;0.00;0.00;;;;;;;13.56;66.31;98518.81;4859115;29;20044;-73
2022/04/24 03:30:42;;;;;;;0.00;0.00;;;;;;;13.53;66.81;98532.06;4859510;29;20041;-74
2022/04/24 03:33:07;;;;;;;0.00;0.00;;;;;;;13.44;66.66;98524.75;4842444;29;20033;-73
2022/04/24 03:35:33;;;;;;;0.22;0.22;;;;;;;13.41;66.95;98528.03;4859316;29;20086;-73
2022/04/24 03:37:59;;;;;;;0.00;0.00;;;;;;;13.41;66.88;98540.69;4858912;29;20101;-73
2022/04/24 03:40:24;;;;;;;0.00;0.00;;;;;;;13.46;67.19;98543.25;4858997;29;20026;-75
2022/04/24 03:42:50;;;;;;;0.00;0.00;;;;;;;13.49;67.49;98547.19;4859093;29;20541;-74
2022/04/24 03:45:15;;;;;;;0.00;0.00;;;;;;;13.54;67.20;98547.09;4857624;29;20478;-73
2022/04/24 03:47:40;;;;;;;0.00;0.00;;;;;;;13.64;67.15;98549.50;4858801;29;20113;-74
2022/04/24 03:50:06;;;;;;;0.00;0.00;;;;;;;13.82;66.79;98561.13;4858538;29;20035;-74
2022/04/24 03:52:32;;;;;;;0.00;0.00;;;;;;;14.02;66.42;98559.00;4859042;29;20049;-74
2022/04/24 03:54:58;;;;;;;0.00;0.00;;;;;;;14.20;65.67;98557.97;4842367;29;20053;-74
2022/04/24 03:57:24;;;;;;;0.00;0.00;;;;;;;14.45;65.20;98560.22;4858736;29;20344;-74
2022/04/24 03:59:50;;;;;;;0.20;0.20;;;;;;;14.73;64.43;98561.59;4858897;29;20406;-74
2022/04/24 04:02:15;;;;;;;0.10;0.10;;;;;;;14.99;63.87;98565.38;4857998;29;20033;-74
2022/04/24 04:04:41;;;;;;;0.10;0.10;;;;;;;15.29;62.91;98574.41;4858653;29;20034;-74
2022/04/24 04:07:06;;;;;;;0.00;0.00;;;;;;;15.58;61.97;98572.94;4858595;29;20033;-74
2022/04/24 04:09:32;;;;;;;0.00;0.00;;;;;;;15.95;61.16;98580.63;4858850;29;20029;-74
2022/04/24 04:11:57;;;;;;;0.10;0.10;;;;;;;16.29;59.80;98587.75;4858822;29;20376;-74
2022/04/24 04:14:23;;;;;;;0.10;0.10;;;;;;;16.68;58.91;98585.00;4858572;29;20034;-74
2022/04/24 04:16:49;;;;;;;0.10;0.10;;;;;;;17.06;57.56;98583.34;4858794;29;20026;-74
2022/04/24 04:19:15;;;;;;;0.10;0.10;;;;;;;17.41;56.46;98591.94;4858801;29;20033;-74
2022/04/24 04:21:41;;;;;;;0.10;0.10;;;;;;;17.79;55.27;98590.13;4858510;29;20033;-74
2022/04/24 04:24:08;;;;;;;0.10;0.10;;;;;;;18.18;54.22;98600.69;4858474;29;20129;-74
2022/04/24 04:26:34;;;;;;;0.10;0.10;;;;;;;18.54;53.00;98602.59;4858614;29;20036;-74
2022/04/24 04:28:59;;;;;;;0.00;0.00;;;;;;;18.96;51.96;98592.63;4858668;29;20029;-74
2022/04/24 04:31:24;;;;;;;0.10;0.10;;;;;;;19.40;50.95;98603.53;4858401;29;20036;-74
2022/04/24 04:33:50;;;;;;;0.10;0.10;;;;;;;19.81;49.78;98606.16;4858557;29;20474;-75
2022/04/24 04:36:16;;;;;;;0.00;0.00;;;;;;;20.24;48.87;98603.78;4858349;29;20029;-74
2022/04/24 04:38:42;;;;;;;0.00;0.00;;;;;;;20.70;47.75;98617.63;4858279;29;20459;-75
2022/04/24 04:41:07;;;;;;;0.00;0.00;;;;;;;21.07;46.65;98620.00;4858370;29;20029;-74
2022/04/24 04:43:33;;;;;;;0.10;0.10;;;;;;;21.44;45.53;98613.34;4858542;29;20062;-75
2022/04/24 04:45:58;;;;;;;0.00;0.00;;;;;;;21.86;44.85;98619.94;4858188;29;20041;-75
2022/04/24 04:48:24;;;;;;;0.00;0.00;;;;;;;22.25;44.17;98608.91;4858335;29;20065;-75
2022/04/24 04:50:50;;;;;;;0.08;0.08;;;;;;;22.68;42.64;98625.19;4858123;29;20037;-75
2022/04/24 04:53:15;;;;;;;0.00;0.00;;;;;;;23.02;41.74;98612.38;4858301;29;20060;-74
2022/04/24 04:55:42;;;;;;;0.00;0.00;;;;;;;23.41;40.95;98619.50;4858668;29;20049;-75
2022/04/24 04:58:07;;;;;;;0.00;0.00;;;;;;;23.73;40.17;98616.31;4858434;29;20034;-75
2022/04/24 05:00:33;;;;;;;0.00;0.00;;;;;;;24.06;39.64;98620.16;4858214;29;20030;-74
2022/04/24 05:02:58;;;;;;;0.00;0.00;;;;;;;24.37;39.21;98620.03;4858366;29;20038;-75
2022/04/24 05:05:24;;;;;;;0.00;0.00;;;;;;;24.72;38.82;98621.44;4856481;29;20127;-75
2022/04/24 05:07:49;;;;;;;0.00;0.00;;;;;;;25.08;38.34;98621.63;4858326;29;20029;-75
2022/04/24 05:10:15;;;;;;;0.00;0.00;;;;;;;25.37;37.93;98619.00;4858053;29;20034;-75
2022/04/24 05:12:40;;;;;;;0.00;0.00;;;;;;;25.63;37.39;98623.38;4858296;29;20029;-76
2022/04/24 05:15:09;;;;;;;0.00;0.00;;;;;;;25.84;36.71;98619.91;4860419;29;20034;-75
2022/04/24 05:17:35;;;;;;;0.00;0.00;;;;;;;26.03;36.62;98628.94;4861337;29;20032;-75
2022/04/24 05:20:01;;;;;;;0.00;0.00;;;;;;;26.06;36.20;98622.66;4861552;29;20042;-75
2022/04/24 05:22:27;;;;;;;0.25;0.25;;;;;;;26.03;36.51;98621.47;4861173;29;20110;-75
2022/04/24 05:24:52;;;;;;;0.00;0.00;;;;;;;25.88;36.23;98622.66;4861679;29;20121;-75
2022/04/24 05:27:19;;;;;;;0.00;0.00;;;;;;;25.79;36.34;98627.72;4861038;29;20120;-74
2022/04/24 05:29:45;;;;;;;0.00;0.00;;;;;;;25.65;36.29;98621.06;4861311;29;20149;-74
2022/04/24 05:32:10;;;;;;;0.00;0.00;;;;;;;25.51;36.10;98618.28;4861045;29;20521;-74
2022/04/24 05:34:36;;;;;;;0.17;0.17;;;;;;;25.26;35.84;98611.53;4860965;29;20069;-74
2022/04/24 05:37:03;;;;;;;0.00;0.00;;;;;;;25.15;36.25;98618.91;4861223;29;20045;-74
2022/04/24 05:39:28;;;;;;;0.10;0.10;;;;;;;24.98;36.45;98614.16;4860937;29;20044;-73
2022/04/24 05:41:54;;;;;;;0.00;0.00;;;;;;;24.86;36.56;98618.00;4860801;29;20025;-73
2022/04/24 05:44:19;;;;;;;0.00;0.00;;;;;;;24.63;36.90;98610.81;4860870;29;20041;-73
2022/04/24 05:46:45;;;;;;;0.00;0.00;;;;;;;24.61;37.90;98608.47;4860982;29;20116;-74
2022/04/24 05:49:10;;;;;;;0.00;0.00;;;;;;;24.64;37.66;98615.09;4861225;29;20033;-73
2022/04/24 05:51:35;;;;;;;0.00;0.00;;;;;;;24.58;37.52;98613.91;4860398;29;20050;-73
2022/04/24 05:54:01;;;;;;;0.00;0.00;;;;;;;24.64;37.58;98615.09;4861099;29;20089;-73
2022/04/24 05:56:26;;;;;;;0.00;0.00;;;;;;;24.55;37.11;98617.41;4860663;29;20648;-74
2022/04/24 05:58:52;;;;;;;0.00;0.00;;;;;;;24.46;37.18;98615.78;4860843;29;20021;-74
2022/04/24 06:01:17;;;;;;;0.00;0.00;;;;;;;24.30;37.01;98610.59;4860612;29;20458;-75
2022/04/24 06:03:43;;;;;;;0.00;0.00;;;;;;;24.21;37.11;98623.78;4860664;29;20030;-75
2022/04/24 06:06:09;;;;;;;0.00;0.00;;;;;;;24.04;37.73;98617.03;4859863;29;20042;-75
2022/04/24 06:08:34;;;;;;;0.20;0.20;;;;;;;23.92;38.06;98623.53;4859736;29;20038;-75
2022/04/24 06:11:00;;;;;;;0.00;0.00;;;;;;;23.78;38.38;98610.53;4859686;29;20033;-74
2022/04/24 06:13:26;;;;;;;0.55;0.55;;;;;;;23.70;38.85;98605.38;4859696;29;20049;-75
2022/04/24 06:15:55;;;;;;;0.20;0.20;;;;;;;23.62;39.07;98599.84;4860141;29;20069;-75
2022/04/24 06:18:21;;;;;;;0.00;0.00;;;;;;;23.50;39.05;98605.56;4859635;29;20112;-75
2022/04/24 06:20:46;;;;;;;0.00;0.00;;;;;;;23.33;38.46;98613.16;4859747;29;20116;-73
2022/04/24 06:23:12;;;;;;;0.03;0.03;;;;;;;23.11;38.85;98611.31;4860053;29;20044;-73
2022/04/24 06:25:39;;;;;;;0.00;0.00;;;;;;;23.04;39.66;98609.28;4858540;29;20043;-73
2022/04/24 06:28:04;;;;;;;0.10;0.10;;;;;;;22.92;40.37;98613.03;4859636;29;20032;-73
2022/04/24 06:30:31;;;;;;;0.00;0.00;;;;;;;22.81;39.99;98612.91;4859662;29;20041;-73
2022/04/24 06:32:57;;;;;;;0.10;0.10;;;;;;;22.82;40.66;98614.44;4859638;29;20116;-73
2022/04/24 06:35:24;;;;;;;0.38;0.38;;;;;;;22.67;40.59;98608.03;4859316;29;20120;-73
2022/04/24 06:37:55;;;;;;;0.05;0.05;;;;;;;22.46;40.82;98616.69;4859483;29;20101;-75
2022/04/24 06:40:23;;;;;;;0.15;0.15;;;;;;;22.27;41.08;98608.56;4859230;29;20093;-74
2022/04/24 06:42:49;;;;;;;;;;;;;;;22.23;41.47;98622.13;4859853;29;20101;-74
2022/04/24 06:45:14;;;;;;;0.10;0.10;;;;;;;22.13;42.09;98623.53;4859640;29;19912;-74
2022/04/24 06:47:40;;;;;;;0.10;0.10;;;;;;;22.11;42.73;98614.94;4859068;29;20073;-74
2022/04/24 06:50:06;;;;;;;0.20;0.20;;;;;;;22.07;42.88;98614.88;4859200;29;20029;-73
2022/04/24 06:52:31;;;;;;;0.17;0.17;;;;;;;22.02;43.06;98620.63;4859034;29;20132;-74
2022/04/24 06:54:58;;;;;;;0.15;0.15;;;;;;;21.99;43.36;98634.94;4859513;29;20033;-73
2022/04/24 06:57:24;;;;;;;0.43;0.43;;;;;;;22.00;43.63;98619.41;4858737;29;20117;-75
2022/04/24 06:59:49;;;;;;;1.55;0.65;;;;;;;21.93;43.56;98606.47;4859140;29;20116;-75
2022/04/24 07:02:15;;;;;;;0.20;0.20;;;;;;;21.96;43.79;98604.94;4858777;29;20029;-74
2022/04/24 07:04:40;;;;;;;0.32;0.32;;;;;;;22.03;43.66;98616.75;4858560;29;20026;-75
2022/04/24 07:07:05;;;;;;;0.00;0.00;;;;;;;22.21;43.53;98614.31;4858867;29;20034;-74
2022/04/24 07:09:31;;;;;;;0.00;0.00;;;;;;;22.29;43.47;98608.97;4857334;29;20112;-75
2022/04/24 07:11:56;;;;;;;0.10;0.10;;;;;;;22.31;43.39;98603.97;4858733;29;20026;-75
2022/04/24 07:14:21;;;;;;;0.00;0.00;;;;;;;22.41;43.60;98608.03;4859085;29;20494;-75
2022/04/24 07:16:47;;;;;;;0.20;0.20;;;;;;;22.51;43.19;98608.19;4859760;29;20124;-75
2022/04/24 07:19:12;;;;;;;0.10;0.10;;;;;;;22.60;43.14;98607.91;4859445;29;20489;-75
2022/04/24 07:21:37;;;;;;;0.00;0.00;;;;;;;22.78;42.62;98610.91;4859008;29;20065;-75
2022/04/24 07:24:03;;;;;;;0.52;0.30;;;;;;;22.94;42.65;98612.69;4859251;29;20451;-75
2022/04/24 07:26:29;;;;;;;0.00;0.00;;;;;;;23.11;42.20;98619.50;4858777;29;20326;-74
2022/04/24 07:28:55;;;;;;;0.00;0.00;;;;;;;23.14;41.53;98625.00;4859539;29;20077;-74
2022/04/24 07:31:20;;;;;;;0.10;0.10;;;;;;;23.27;42.05;98617.38;4859201;29;20085;-75
2022/04/24 07:33:45;;;;;;;0.30;0.30;;;;;;;23.40;42.18;98620.66;4859129;29;20490;-75
2022/04/24 07:36:11;;;;;;;0.00;0.00;;;;;;;23.34;41.22;98617.47;4859142;29;20034;-75
2022/04/24 07:38:36;;;;;;;0.05;0.05;;;;;;;23.34;41.51;98616.69;4858817;29;20486;-75
2022/04/24 07:41:03;;;;;;;0.20;0.20;;;;;;;23.40;40.95;98617.13;4859349;29;20040;-75
2022/04/24 07:43:28;;;;;;;0.00;0.00;;;;;;;23.36;41.33;98614.38;4858818;29;20038;-74
2022/04/24 07:45:54;;;;;;;0.00;0.00;;;;;;;23.46;41.42;98612.91;4859020;29;20030;-74
2022/04/24 07:48:20;;;;;;;0.00;0.00;;;;;;;23.50;41.70;98603.59;4858752;29;20067;-74
2022/04/24 07:50:50;;;;;;;0.00;0.00;;;;;;;23.67;41.35;98612.38;4858760;29;20501;-74
2022/04/24 07:53:17;;;;;;;0.10;0.10;;;;;;;23.71;41.12;98606.94;4859065;29;20028;-74
2022/04/24 07:55:45;;;;;;;0.03;0.03;;;;;;;23.64;40.33;98613.09;4858758;29;20043;-74
2022/04/24 07:58:11;;;;;;;3.10;0.30;;;;;;;23.63;39.95;98604.16;4858936;29;20033;-74
2022/04/24 08:00:37;;;;;;;2.63;0.20;;;;;;;23.62;40.53;98609.94;4858670;29;20036;-74
2022/04/24 08:03:05;;;;;;;6.03;0.55;;;;;;;23.53;39.68;98609.50;4858882;29;20062;-74
2022/04/24 08:05:33;;;;;;;0.00;0.00;;;;;;;23.47;40.17;98606.28;4858794;29;20033;-74
2022/04/24 08:08:02;;;;;;;0.43;0.20;;;;;;;23.46;41.09;98605.53;4858836;29;20033;-74
2022/04/24 08:10:30;;;;;;;0.10;0.10;;;;;;;23.37;40.74;98601.53;4858233;29;20434;-74
2022/04/24 08:12:56;;;;;;;0.00;0.00;;;;;;;23.39;40.76;98605.44;4858453;29;20409;-74
2022/04/24 08:15:22;;;;;;;0.10;0.10;;;;;;;23.33;40.20;98596.78;4858491;29;20033;-74
2022/04/24 08:17:47;;;;;;;0.00;0.00;;;;;;;23.31;40.31;98601.84;4858730;29;20025;-74
2022/04/24 08:20:14;;;;;;;0.00;0.00;;;;;;;23.31;39.70;98599.13;4858730;29;20057;-74
2022/04/24 08:22:41;;;;;;;0.00;0.00;;;;;;;23.27;39.44;98586.59;4858370;29;20474;-74
2022/04/24 08:25:07;;;;;;;0.10;0.10;;;;;;;23.21;40.17;98577.97;4858955;29;20032;-75
2022/04/24 08:27:33;;;;;;;0.30;0.30;;;;;;;23.33;40.83;98585.09;4858335;29;20022;-75
2022/04/24 08:29:58;;;;;;;0.70;0.70;;;;;;;23.47;40.64;98581.75;4858625;29;20046;-74
2022/04/24 08:32:26;;;;;;;0.00;0.00;;;;;;;23.54;39.81;98581.81;4858336;29;20041;-74
2022/04/24 08:34:51;;;;;;;;;;;;;;;23.59;40.05;98578.75;4858831;29;20037;-74
2022/04/24 08:37:17;;;;;;;0.13;0.13;;;;;;;23.74;40.78;98579.69;4858325;29;19912;-74
2022/04/24 08:39:43;;;;;;;0.00;0.00;;;;;;;23.80;40.54;98578.19;4858102;29;20030;-75
2022/04/24 08:42:09;;;;;;;2.75;0.47;;;;;;;23.89;40.85;98572.41;4858444;29;20037;-74
2022/04/24 08:44:38;;;;;;;0.00;0.00;;;;;;;24.05;40.15;98565.94;4857920;29;20500;-74
2022/04/24 08:47:04;;;;;;;0.00;0.00;;;;;;;24.04;39.78;98567.84;4858302;29;20120;-74
2022/04/24 08:49:33;;;;;;;0.10;0.10;;;;;;;24.05;39.88;98563.19;4859589;29;20120;-74
2022/04/24 08:52:00;;;;;;;0.10;0.10;;;;;;;24.06;40.39;98562.81;4861706;29;20358;-74
2022/04/24 08:54:27;;;;;;;0.03;0.03;;;;;;;23.96;40.57;98568.94;4861272;29;20033;-74
2022/04/24 08:56:56;;;;;;;0.10;0.10;;;;;;;23.81;40.76;98559.84;4861443;29;20514;-75
2022/04/24 08:59:22;;;;;;;0.30;0.30;;;;;;;23.74;40.89;98559.78;4861331;29;20116;-74
2022/04/24 09:01:48;;;;;;;0.10;0.10;;;;;;;23.66;41.33;98554.25;4861526;29;20117;-74
2022/04/24 09:04:13;;;;;;;1.25;0.32;;;;;;;23.70;41.83;98551.53;4861273;29;20462;-74
2022/04/24 09:06:40;;;;;;;0.00;0.00;;;;;;;23.63;41.07;98544.09;4861253;29;20033;-74
2022/04/24 09:09:06;;;;;;;0.00;0.00;;;;;;;23.71;42.03;98534.00;4861331;29;20170;-74
2022/04/24 09:11:33;;;;;;;0.00;0.00;;;;;;;23.71;41.56;98531.28;4861157;29;20034;-75
2022/04/24 09:16:49;;;;;;;0.00;0.00;;;;;;;23.87;42.01;98531.03;4861197;29;20052;-74
2022/04/24 09:19:16;;;;;;;0.10;0.10;;;;;;;23.93;41.50;98539.69;4861504;29;20104;-74
2022/04/24 09:21:42;;;;;;;0.77;0.63;;;;;;;23.96;41.66;98536.19;4861124;29;20029;-74
2022/04/24 09:24:07;;;;;;;0.00;0.00;;;;;;;24.02;41.08;98529.19;4861344;29;20105;-74
2022/04/24 09:26:33;;;;;;;0.00;0.00;;;;;;;24.08;40.74;98526.91;4860996;29;20124;-75
2022/04/24 09:28:59;;;;;;;0.00;0.00;;;;;;;24.07;40.21;98533.53;4861272;29;20116;-75
2022/04/24 09:31:30;;;;;;;0.32;0.32;;;;;;;24.11;39.67;98520.72;4861277;29;20029;-75
2022/04/24 09:33:56;;;;;;;0.00;0.00;;;;;;;24.10;39.22;98525.38;4861215;29;20025;-74
2022/04/24 09:36:25;;;;;;;0.00;0.00;;;;;;;24.08;39.97;98521.44;4860751;29;20029;-74
2022/04/24 09:38:50;;;;;;;0.43;0.43;;;;;;;24.14;39.73;98536.31;4861003;29;20057;-74
2022/04/24 09:41:19;;;;;;;0.13;0.13;;;;;;;24.13;39.93;98530.09;4860786;29;20104;-76
2022/04/24 09:43:44;;;;;;;0.00;0.00;;;;;;;24.10;39.23;98524.59;4860550;29;20545;-75
2022/04/24 09:46:10;;;;;;;0.10;0.10;;;;;;;24.10;39.53;98519.13;4860957;29;20025;-75
2022/04/24 09:48:35;;;;;;;1.95;0.43;;;;;;;24.00;39.48;98512.44;4860700;29;20052;-75
2022/04/24 09:51:02;;;;;;;0.15;0.15;;;;;;;23.96;39.79;98517.06;4860821;29;20053;-75
2022/04/24 09:53:29;;;;;;;0.00;0.00;;;;;;;23.96;40.01;98500.69;4860673;29;20052;-77
2022/04/24 09:55:55;;;;;;;0.00;0.00;;;;;;;24.05;39.64;98514.03;4861053;29;20038;-75
2022/04/24 09:58:21;;;;;;;0.10;0.10;;;;;;;24.03;38.23;98510.88;4860907;29;20057;-74
2022/04/24 10:00:47;;;;;;;0.00;0.00;;;;;;;24.06;38.09;98507.38;4860543;29;20034;-75
2022/04/24 10:03:17;;;;;;;3.20;0.52;;;;;;;24.01;37.58;98511.28;4860314;29;20036;-74
2022/04/24 10:05:45;;;;;;;0.00;0.00;;;;;;;24.04;37.84;98498.81;4860325;29;20100;-74
2022/04/24 10:08:11;;;;;;;0.10;0.10;;;;;;;24.08;37.39;98507.78;4860645;29;20470;-75
2022/04/24 10:10:37;;;;;;;0.30;0.30;;;;;;;24.11;37.36;98502.34;4860501;29;20037;-74
2022/04/24 10:13:06;;;;;;;0.00;0.00;;;;;;;24.17;37.37;98493.78;4860622;29;20029;-75
2022/04/24 10:15:33;;;;;;;1.08;0.13;;;;;;;24.14;37.90;98485.22;4860055;29;20032;-75
2022/04/24 10:18:21;;;;;;;0.00;0.00;;;;;;;24.23;38.46;98482.13;4860557;29;20041;-75
2022/04/24 10:21:05;;;;;;;;;;;;;;;24.32;38.30;98486.47;4860534;29;20041;-75
2022/04/24 10:23:36;;;;;;;0.65;0.52;;;;;;;24.27;37.70;98484.88;4860249;29;19912;-75
2022/04/24 10:26:03;;;;;;;0.00;0.00;;;;;;;24.28;36.87;98473.56;4860240;29;20433;-75
2022/04/24 10:28:40;;;;;;;0.00;0.00;;;;;;;24.33;37.82;98488.03;4860371;29;20036;-75
2022/04/24 10:31:06;;;;;;;0.00;0.00;;;;;;;24.32;36.88;98489.22;4860271;29;20040;-75
2022/04/24 10:33:33;;;;;;;0.20;0.20;;;;;;;24.28;35.82;98475.53;4859915;29;20044;-75
2022/04/24 10:36:04;;;;;;;0.55;0.55;;;;;;;24.22;35.69;98471.59;4860081;29;20406;-75
2022/04/24 10:38:32;;;;;;;0.43;0.43;;;;;;;24.12;36.65;98473.06;4860356;29;20561;-75
2022/04/24 10:41:07;;;;;;;;;;;;;;;24.13;37.22;98464.53;4860551;29;20095;-75
2022/04/24 10:43:41;;;;;;;1.20;1.20;;;;;;;24.15;36.90;98469.59;4859792;29;19912;-75
2022/04/24 10:46:20;;;;;;;0.65;0.65;;;;;;;24.20;37.29;98471.97;4859909;29;20490;-75
2022/04/24 10:48:48;;;;;;;0.45;0.45;;;;;;;24.25;37.16;98465.34;4859638;29;20029;-75
2022/04/24 10:51:29;;;;;;;0.28;0.28;;;;;;;24.34;37.04;98460.34;4859381;29;20049;-75
2022/04/24 10:54:05;;;;;;;0.00;0.00;;;;;;;24.36;36.36;98465.41;4859681;29;20072;-75
2022/04/24 10:56:31;;;;;;;0.00;0.00;;;;;;;24.44;36.48;98470.53;4858519;29;20048;-74
2022/04/24 10:59:11;;;;;;;0.00;0.00;;;;;;;24.50;36.19;98464.69;4859813;29;20394;-75
2022/04/24 11:01:40;;;;;;;0.00;0.00;;;;;;;24.56;36.13;98449.47;4859613;29;20030;-75
2022/04/24 11:04:07;;;;;;;0.00;0.00;;;;;;;24.68;36.69;98448.38;4859366;29;20037;-75
2022/04/24 11:06:34;;;;;;;0.00;0.00;;;;;;;24.71;35.56;98451.13;4859285;29;20026;-75
2022/04/24 11:09:11;;;;;;;7.68;0.57;;;;;;;24.79;35.34;98441.00;4859255;29;20469;-75
2022/04/24 11:11:46;;;;;;;0.05;0.05;;;;;;;24.79;35.30;98443.72;4859139;29;20038;-75
2022/04/24 11:14:12;;;;;;;0.10;0.10;;;;;;;24.80;35.72;98433.59;4859388;29;20026;-75
2022/04/24 11:16:37;;;;;;;0.00;0.00;;;;;;;24.89;35.90;98440.25;4859413;29;20534;-75
2022/04/24 11:19:03;;;;;;;0.00;0.00;;;;;;;24.93;35.60;98434.78;4859400;29;20058;-75
2022/04/24 11:21:28;;;;;;;0.82;0.80;;;;;;;24.91;35.89;98428.91;4859288;29;20358;-76
2022/04/24 11:24:01;;;;;;;0.00;0.00;;;;;;;24.89;36.09;98429.31;4859064;29;20029;-75
2022/04/24 11:26:26;;;;;;;0.10;0.10;;;;;;;24.94;36.19;98436.38;4858945;29;20532;-75
2022/04/24 11:28:52;;;;;;;0.00;0.00;;;;;;;24.92;36.75;98434.00;4858961;29;20061;-75
2022/04/24 11:31:19;;;;;;;0.05;0.05;;;;;;;24.97;36.62;98423.88;4859247;29;20029;-75
2022/04/24 11:34:05;;;;;;;0.00;0.00;;;;;;;25.01;37.00;98411.75;4858799;29;20029;-75